createdAt,value
2022-09-15T00:02:03.457Z,97416.78
2022-09-15T00:04:30.775Z,97413.38
2022-09-15T00:06:58.041Z,97421.22
2022-09-15T00:09:25.274Z,97423.84
2022-09-15T00:11:52.614Z,97410.94
2022-09-15T00:14:19.833Z,97409.94
2022-09-15T00:16:47.137Z,97412.72
2022-09-15T00:19:14.417Z,97418.78
2022-09-15T00:21:41.687Z,97420.56
2022-09-15T00:24:09.004Z,97415.31
2022-09-15T00:26:36.262Z,97419.75
2022-09-15T00:29:03.514Z,97414.53
2022-09-15T00:31:30.852Z,97417.94
2022-09-15T00:33:58.378Z,97411.09
2022-09-15T00:36:25.640Z,97412.72
2022-09-15T00:38:52.846Z,97413.72
2022-09-15T00:41:20.104Z,97410.28
2022-09-15T00:43:47.436Z,97413.72
2022-09-15T00:46:14.801Z,97413.72
2022-09-15T00:48:42.097Z,97399.97
2022-09-15T00:51:09.347Z,97403.22
2022-09-15T00:53:36.652Z,97402.41
2022-09-15T00:56:03.912Z,97391.13
2022-09-15T00:58:31.167Z,97395.53
2022-09-15T01:00:58.597Z,97392.09
2022-09-15T01:03:25.882Z,97393.72
2022-09-15T01:05:53.951Z,97396.34
2022-09-15T01:08:21.165Z,97395.69
2022-09-15T01:10:48.591Z,97397.34
2022-09-15T01:13:15.845Z,97396.50
2022-09-15T01:15:43.108Z,97395.69
2022-09-15T01:18:10.346Z,97397.34
2022-09-15T01:20:37.754Z,97398.16
2022-09-15T01:23:05.513Z,97395.69
2022-09-15T01:25:33.381Z,97388.66
2022-09-15T01:28:00.628Z,97386.03
2022-09-15T01:30:27.883Z,97389.50
2022-09-15T01:33:04.334Z,97379.97
2022-09-15T01:35:33.689Z,97385.22
2022-09-15T01:38:00.915Z,97387.84
2022-09-15T01:40:28.226Z,97387.03
2022-09-15T01:42:55.785Z,97388.03
2022-09-15T01:45:23.109Z,97387.03
2022-09-15T01:47:50.380Z,97387.03
2022-09-15T01:50:17.674Z,97386.22
2022-09-15T01:52:44.925Z,97381.78
2022-09-15T01:55:12.179Z,97375.72
2022-09-15T01:57:39.431Z,97374.91
2022-09-15T02:00:06.701Z,97372.28
2022-09-15T02:02:34.109Z,97365.25
2022-09-15T02:05:01.668Z,97369.00
2022-09-15T02:07:28.937Z,97365.44
2022-09-15T02:09:56.179Z,97366.25
2022-09-15T02:12:23.409Z,97366.25
2022-09-15T02:14:50.690Z,97364.44
2022-09-15T02:17:17.948Z,97364.44
2022-09-15T02:19:45.248Z,97360.19
2022-09-15T02:22:12.505Z,97360.19
2022-09-15T02:24:40.666Z,97355.88
2022-09-15T02:27:07.960Z,97354.94
2022-09-15T02:29:36.389Z,97356.69
2022-09-15T02:32:07.181Z,97353.25
2022-09-15T02:34:34.737Z,97351.44
2022-09-15T02:37:01.999Z,97354.25
2022-09-15T02:39:29.332Z,97349.84
2022-09-15T02:41:56.635Z,97355.88
2022-09-15T02:44:23.903Z,97353.25
2022-09-15T02:46:51.559Z,97343.59
2022-09-15T02:49:20.345Z,97345.41
2022-09-15T02:51:47.615Z,97335.91
2022-09-15T02:54:15.144Z,97334.09
2022-09-15T02:56:44.059Z,97336.72
2022-09-15T02:59:11.290Z,97336.72
2022-09-15T03:01:39.117Z,97332.28
2022-09-15T03:04:06.538Z,97334.28
2022-09-15T03:06:36.738Z,97329.88
2022-09-15T03:09:03.987Z,97328.06
2022-09-15T03:11:31.238Z,97341.16
2022-09-15T03:13:58.519Z,97335.09
2022-09-15T03:16:25.797Z,97328.25
2022-09-15T03:18:53.109Z,97323.81
2022-09-15T03:21:20.494Z,97315.94
2022-09-15T03:23:47.704Z,97315.94
2022-09-15T03:26:15.006Z,97317.75
2022-09-15T03:28:42.250Z,97315.94
2022-09-15T03:31:09.620Z,97322.81
2022-09-15T03:33:36.937Z,97319.56
2022-09-15T03:36:04.297Z,97325.78
2022-09-15T03:38:31.582Z,97322.19
2022-09-15T03:40:58.837Z,97315.28
2022-09-15T03:43:26.045Z,97313.47
2022-09-15T03:45:53.333Z,97308.25
2022-09-15T03:48:20.639Z,97309.09
2022-09-15T03:50:47.892Z,97307.28
2022-09-15T03:53:15.133Z,97296.13
2022-09-15T03:55:42.341Z,97291.72
2022-09-15T03:58:09.600Z,97298.75
2022-09-15T04:00:36.919Z,97301.22
2022-09-15T04:03:05.680Z,97302.19
2022-09-15T04:05:33.040Z,97306.47
2022-09-15T04:08:00.314Z,97309.09
2022-09-15T04:10:27.565Z,97305.63
2022-09-15T04:12:54.823Z,97303.00
2022-09-15T04:15:22.823Z,97305.63
2022-09-15T04:17:50.050Z,97304.00
2022-09-15T04:20:17.450Z,97305.63
2022-09-15T04:22:44.849Z,97303.19
2022-09-15T04:25:12.269Z,97303.19
2022-09-15T04:27:39.540Z,97296.13
2022-09-15T04:30:06.815Z,97296.94
2022-09-15T04:32:35.831Z,97295.31
2022-09-15T04:35:03.142Z,97296.94
2022-09-15T04:37:30.470Z,97293.50
2022-09-15T04:39:57.788Z,97295.31
2022-09-15T04:42:25.155Z,97293.50
2022-09-15T04:44:52.420Z,97291.72
2022-09-15T04:47:19.717Z,97287.47
2022-09-15T04:49:46.994Z,97292.72
2022-09-15T04:52:14.212Z,97291.91
2022-09-15T04:54:41.494Z,97292.72
2022-09-15T04:57:09.757Z,97288.28
2022-09-15T04:59:37.115Z,97290.09
2022-09-15T05:02:04.435Z,97294.50
2022-09-15T05:04:31.772Z,97289.28
2022-09-15T05:06:59.008Z,97291.91
2022-09-15T05:09:28.022Z,97291.09
2022-09-15T05:11:55.352Z,97291.72
2022-09-15T05:14:22.514Z,97294.31
2022-09-15T05:16:49.715Z,97286.66
2022-09-15T05:19:16.920Z,97286.47
2022-09-15T05:21:44.103Z,97284.03
2022-09-15T05:24:11.272Z,97286.66
2022-09-15T05:26:38.474Z,97280.59
2022-09-15T05:29:05.727Z,97290.91
2022-09-15T05:31:33.895Z,97294.50
2022-09-15T05:34:01.223Z,97296.94
2022-09-15T05:36:28.403Z,97294.31
2022-09-15T05:38:56.858Z,97297.13
2022-09-15T05:41:24.052Z,97297.13
2022-09-15T05:43:51.282Z,97296.31
2022-09-15T05:46:18.591Z,97298.75
2022-09-15T05:48:46.001Z,97299.56
2022-09-15T05:51:13.194Z,97300.56
2022-09-15T05:53:40.375Z,97290.09
2022-09-15T05:56:07.564Z,97293.72
2022-09-15T05:58:34.826Z,97290.09
2022-09-15T06:01:01.984Z,97289.28
2022-09-15T06:03:31.104Z,97292.72
2022-09-15T06:05:58.456Z,97294.50
2022-09-15T06:08:25.668Z,97285.84
2022-09-15T06:10:52.861Z,97291.09
2022-09-15T06:13:20.021Z,97288.47
2022-09-15T06:15:47.226Z,97276.16
2022-09-15T06:18:14.404Z,97274.38
2022-09-15T06:20:41.597Z,97270.13
2022-09-15T06:23:08.790Z,97271.94
2022-09-15T06:25:36.079Z,97285.03
2022-09-15T06:28:03.241Z,97283.22
2022-09-15T06:30:30.747Z,97288.47
2022-09-15T06:32:57.940Z,97294.50
2022-09-15T06:35:25.147Z,97293.72
2022-09-15T06:37:52.309Z,97294.66
2022-09-15T06:40:19.611Z,97302.53
2022-09-15T06:42:46.824Z,97319.09
2022-09-15T06:45:13.993Z,97340.06
2022-09-15T06:47:41.181Z,97350.09
2022-09-15T06:50:08.484Z,97377.09
2022-09-15T06:52:36.514Z,97389.19
2022-09-15T06:55:03.991Z,97395.44
2022-09-15T06:57:31.177Z,97415.41
2022-09-15T06:59:58.381Z,97421.31
2022-09-15T07:02:25.662Z,97423.09
2022-09-15T07:04:53.004Z,97397.88
2022-09-15T07:07:20.483Z,97361.19
2022-09-15T07:09:49.147Z,97366.44
2022-09-15T07:12:16.541Z,97370.84
2022-09-15T07:14:43.797Z,97391.81
2022-09-15T07:17:11.008Z,97402.31
2022-09-15T07:19:38.739Z,97410.97
2022-09-15T07:22:05.925Z,97408.38
2022-09-15T07:24:33.091Z,97409.16
2022-09-15T07:27:01.074Z,97411.78
2022-09-15T07:29:28.312Z,97399.69
2022-09-15T07:31:55.626Z,97417.22
2022-09-15T07:34:23.076Z,97431.94
2022-09-15T07:36:50.252Z,97431.13
2022-09-15T07:39:17.421Z,97439.81
2022-09-15T07:41:44.677Z,97452.09
2022-09-15T07:44:13.455Z,97442.63
2022-09-15T07:46:40.658Z,97449.66
2022-09-15T07:49:08.447Z,97455.72
2022-09-15T07:51:35.704Z,97455.72
2022-09-15T07:54:02.959Z,97459.16
2022-09-15T07:56:30.235Z,97460.97
2022-09-15T07:58:57.522Z,97466.19
2022-09-15T08:01:24.779Z,97461.94
2022-09-15T08:03:52.463Z,97468.00
2022-09-15T08:06:19.839Z,97475.06
2022-09-15T08:08:47.228Z,97478.50
2022-09-15T08:11:18.438Z,97481.91
2022-09-15T08:13:46.209Z,97491.59
2022-09-15T08:16:13.881Z,97498.47
2022-09-15T08:18:42.370Z,97502.06
2022-09-15T08:21:09.692Z,97504.69
2022-09-15T08:23:36.864Z,97504.69
2022-09-15T08:26:04.280Z,97509.94
2022-09-15T08:28:31.461Z,97502.06
2022-09-15T08:31:00.102Z,97502.88
2022-09-15T08:33:27.782Z,97504.50
2022-09-15T08:35:55.110Z,97511.53
2022-09-15T08:38:22.401Z,97515.78
2022-09-15T08:40:49.664Z,97525.31
2022-09-15T08:43:16.884Z,97526.25
2022-09-15T08:45:44.080Z,97524.44
2022-09-15T08:48:11.263Z,97528.75
2022-09-15T08:50:39.087Z,97528.56
2022-09-15T08:53:13.164Z,97529.38
2022-09-15T08:55:41.650Z,97538.72
2022-09-15T08:58:08.820Z,97540.34
2022-09-15T09:00:36.007Z,97542.16
2022-09-15T09:03:03.303Z,97551.63
2022-09-15T09:05:30.516Z,97553.31
2022-09-15T09:07:57.739Z,97559.34
2022-09-15T09:10:24.970Z,97565.41
2022-09-15T09:12:52.133Z,97563.59
2022-09-15T09:15:19.302Z,97558.34
2022-09-15T09:17:46.899Z,97564.41
2022-09-15T09:20:14.063Z,97558.19
2022-09-15T09:22:41.509Z,97562.59
2022-09-15T09:25:26.169Z,97570.47
2022-09-15T09:27:54.384Z,97572.13
2022-09-15T09:30:21.550Z,97569.50
2022-09-15T09:32:48.763Z,97567.69
2022-09-15T09:35:16.011Z,97550.97
2022-09-15T09:37:43.271Z,97569.31
2022-09-15T09:40:10.489Z,97573.75
2022-09-15T09:42:38.335Z,97582.09
2022-09-15T09:45:05.656Z,97580.94
2022-09-15T09:47:32.976Z,97578.63
2022-09-15T09:50:00.323Z,97570.41
2022-09-15T09:52:27.572Z,97576.47
2022-09-15T09:54:54.960Z,97562.38
2022-09-15T09:57:22.219Z,97571.84
2022-09-15T09:59:49.582Z,97570.72
2022-09-15T10:02:16.807Z,97573.50
2022-09-15T10:04:44.263Z,97570.53
2022-09-15T10:07:11.711Z,97571.53
2022-09-15T10:09:39.481Z,97572.53
2022-09-15T10:12:06.704Z,97575.13
2022-09-15T10:14:33.861Z,97564.66
2022-09-15T10:17:01.137Z,97574.13
2022-09-15T10:19:28.388Z,97574.47
2022-09-15T10:21:55.609Z,97584.97
2022-09-15T10:24:22.792Z,97577.28
2022-09-15T10:26:49.967Z,97578.75
2022-09-15T10:29:17.202Z,97576.75
2022-09-15T10:31:44.853Z,97574.31
2022-09-15T10:34:12.134Z,97570.91
2022-09-15T10:36:39.601Z,97575.94
2022-09-15T10:39:06.837Z,97590.69
2022-09-15T10:41:35.185Z,97589.25
2022-09-15T10:44:02.558Z,97589.25
2022-09-15T10:46:29.749Z,97585.44
2022-09-15T10:48:56.914Z,97594.97
2022-09-15T10:51:24.407Z,97594.13
2022-09-15T10:53:54.565Z,97587.44
2022-09-15T10:56:24.468Z,97578.75
2022-09-15T10:58:51.984Z,97577.94
2022-09-15T11:01:19.229Z,97574.31
2022-09-15T11:03:46.854Z,97576.94
2022-09-15T11:06:14.096Z,97578.75
2022-09-15T11:08:41.272Z,97582.34
2022-09-15T11:11:08.448Z,97577.94
2022-09-15T11:13:36.326Z,97572.69
2022-09-15T11:16:03.732Z,97572.53
2022-09-15T11:18:30.982Z,97576.94
2022-09-15T11:20:58.443Z,97573.50
2022-09-15T11:23:25.736Z,97581.38
2022-09-15T11:25:52.932Z,97581.84
2022-09-15T11:28:20.105Z,97587.25
2022-09-15T11:30:47.989Z,97585.63
2022-09-15T11:33:15.212Z,97595.31
2022-09-15T11:35:42.385Z,97591.88
2022-09-15T11:38:12.909Z,97599.75
2022-09-15T11:40:40.491Z,97597.13
2022-09-15T11:43:07.688Z,97597.13
2022-09-15T11:45:34.870Z,97598.94
2022-09-15T11:48:02.044Z,97598.94
2022-09-15T11:50:29.246Z,97595.31
2022-09-15T11:52:56.417Z,97592.69
2022-09-15T11:55:24.080Z,97597.94
2022-09-15T11:57:51.276Z,97607.59
2022-09-15T12:00:18.450Z,97592.69
2022-09-15T12:02:45.649Z,97601.38
2022-09-15T12:05:12.889Z,97593.50
2022-09-15T12:07:40.067Z,97605.78
2022-09-15T12:10:07.526Z,97598.75
2022-09-15T12:12:35.611Z,97600.69
2022-09-15T12:15:02.784Z,97607.59
2022-09-15T12:17:30.036Z,97612.19
2022-09-15T12:19:57.475Z,97609.41
2022-09-15T12:22:24.730Z,97611.03
2022-09-15T12:24:52.207Z,97612.84
2022-09-15T12:27:19.673Z,97616.44
2022-09-15T12:29:47.284Z,97613.81
2022-09-15T12:32:14.478Z,97609.41
2022-09-15T12:34:41.932Z,97619.06
2022-09-15T12:37:10.906Z,97606.94
2022-09-15T12:39:40.475Z,97614.81
2022-09-15T12:42:08.303Z,97616.44
2022-09-15T12:44:35.468Z,97617.44
2022-09-15T12:47:03.065Z,97632.34
2022-09-15T12:49:30.260Z,97628.91
2022-09-15T12:51:57.470Z,97624.66
2022-09-15T12:54:24.918Z,97625.47
2022-09-15T12:56:52.114Z,97630.72
2022-09-15T12:59:20.091Z,97628.09
2022-09-15T13:01:48.301Z,97628.09
2022-09-15T13:04:15.520Z,97629.91
2022-09-15T13:06:42.729Z,97636.78
2022-09-15T13:09:09.913Z,97634.16
2022-09-15T13:11:37.737Z,97642.03
2022-09-15T13:14:08.158Z,97635.16
2022-09-15T13:16:35.349Z,97637.78
2022-09-15T13:19:02.526Z,97638.13
2022-09-15T13:21:29.739Z,97633.69
2022-09-15T13:23:56.904Z,97635.31
2022-09-15T13:26:24.218Z,97630.25
2022-09-15T13:28:54.092Z,97627.44
2022-09-15T13:31:23.517Z,97638.13
2022-09-15T13:39:25.440Z,97628.59
2022-09-15T13:41:52.645Z,97624.19
2022-09-15T13:44:19.828Z,97619.91
2022-09-15T13:46:47.008Z,97623.19
2022-09-15T13:49:14.181Z,97618.94
2022-09-15T13:51:41.355Z,97617.13
2022-09-15T13:54:08.895Z,97615.47
2022-09-15T13:56:38.144Z,97617.13
2022-09-15T13:59:11.460Z,97622.53
2022-09-15T14:01:42.617Z,97621.72
2022-09-15T14:04:09.876Z,97619.09
2022-09-15T14:06:37.078Z,97623.53
2022-09-15T14:09:05.649Z,97618.28
2022-09-15T14:11:32.836Z,97615.66
2022-09-15T14:14:01.090Z,97620.28
2022-09-15T14:16:28.369Z,97610.41
2022-09-15T14:18:55.604Z,97616.31
2022-09-15T14:21:22.853Z,97603.22
2022-09-15T14:23:50.734Z,97615.47
2022-09-15T14:26:18.215Z,97621.38
2022-09-15T14:28:45.374Z,97620.41
2022-09-15T14:31:12.545Z,97625.63
2022-09-15T14:33:39.741Z,97629.25
2022-09-15T14:36:07.629Z,97634.31
2022-09-15T14:38:34.804Z,97626.31
2022-09-15T14:41:01.981Z,97633.34
2022-09-15T14:43:29.215Z,97627.09
2022-09-15T14:46:05.136Z,97634.97
2022-09-15T14:48:35.917Z,97633.34
2022-09-15T14:51:03.147Z,97622.88
2022-09-15T14:53:30.365Z,97630.53
2022-09-15T14:55:57.644Z,97627.94
2022-09-15T14:58:24.880Z,97627.94
2022-09-15T15:00:52.146Z,97629.56
2022-09-15T15:03:19.354Z,97631.34
2022-09-15T15:05:46.550Z,97638.25
2022-09-15T15:08:13.839Z,97628.59
2022-09-15T15:10:41.013Z,97628.59
2022-09-15T15:13:08.319Z,97632.03
2022-09-15T15:15:35.532Z,97635.47
2022-09-15T15:18:02.900Z,97633.66
2022-09-15T15:20:33.094Z,97641.50
2022-09-15T15:23:00.337Z,97641.69
2022-09-15T15:25:33.028Z,97643.50
2022-09-15T15:28:00.273Z,97645.13
2022-09-15T15:30:29.778Z,97645.13
2022-09-15T15:32:57.442Z,97655.63
2022-09-15T15:35:24.626Z,97649.56
2022-09-15T15:37:51.786Z,97657.59
2022-09-15T15:40:19.090Z,97660.38
2022-09-15T15:42:46.307Z,97670.22
2022-09-15T15:45:13.583Z,97672.84
2022-09-15T15:47:40.763Z,97673.16
2022-09-15T15:50:13.392Z,97675.97
2022-09-15T15:52:41.757Z,97672.53
2022-09-15T15:55:08.940Z,97675.16
2022-09-15T15:57:36.119Z,97666.47
2022-09-15T16:00:03.352Z,97672.72
2022-09-15T16:02:30.538Z,97676.31
2022-09-15T16:04:57.755Z,97672.88
2022-09-15T16:07:31.127Z,97672.88
2022-09-15T16:10:00.227Z,97672.22
2022-09-15T16:12:30.726Z,97676.47
2022-09-15T16:15:00.452Z,97676.63
2022-09-15T16:17:27.676Z,97675.47
2022-09-15T16:19:54.907Z,97676.41
2022-09-15T16:22:22.159Z,97680.34
2022-09-15T16:24:49.389Z,97682.34
2022-09-15T16:27:16.631Z,97685.75
2022-09-15T16:29:44.073Z,97691.00
2022-09-15T16:32:11.267Z,97688.53
2022-09-15T16:34:38.469Z,97693.78
2022-09-15T16:37:05.679Z,97696.41
2022-09-15T16:39:32.937Z,97703.31
2022-09-15T16:44:47.435Z,97704.13
2022-09-15T16:47:14.822Z,97711.00
2022-09-15T16:49:42.358Z,97709.03
2022-09-15T16:52:09.559Z,97710.84
2022-09-15T16:54:36.787Z,97712.63
2022-09-15T16:57:04.143Z,97729.22
2022-09-15T16:59:31.747Z,97729.22
2022-09-15T17:01:59.366Z,97729.22
2022-09-15T17:04:26.800Z,97731.97
2022-09-15T17:06:54.082Z,97735.59
2022-09-15T17:09:21.341Z,97741.84
2022-09-15T17:11:48.629Z,97747.09
2022-09-15T17:14:17.142Z,97745.44
2022-09-15T17:16:47.466Z,97749.72
2022-09-15T17:19:14.739Z,97749.03
2022-09-15T17:21:41.969Z,97749.84
2022-09-15T17:24:09.315Z,97756.91
2022-09-15T17:26:36.493Z,97755.09
2022-09-15T17:29:03.738Z,97756.91
2022-09-15T17:31:31.333Z,97760.53
2022-09-15T17:33:58.631Z,97757.09
2022-09-15T17:36:26.296Z,97760.66
2022-09-15T17:38:53.639Z,97765.91
2022-09-15T17:41:20.981Z,97768.53
2022-09-15T17:43:48.194Z,97761.03
2022-09-15T17:46:15.465Z,97766.09
2022-09-15T17:48:43.536Z,97760.53
2022-09-15T17:51:10.751Z,97757.72
2022-09-15T17:53:37.987Z,97747.09
2022-09-15T17:56:05.147Z,97760.00
2022-09-15T17:58:33.447Z,97761.81
2022-09-15T18:01:00.683Z,97768.06
2022-09-15T18:03:28.054Z,97771.81
2022-09-15T18:05:55.600Z,97783.31
2022-09-15T18:08:22.774Z,97776.41
2022-09-15T18:10:49.998Z,97787.06
2022-09-15T18:13:17.234Z,97782.81
2022-09-15T18:15:44.615Z,97790.69
2022-09-15T18:18:11.898Z,97785.44
2022-09-15T18:20:39.066Z,97784.16
2022-09-15T18:23:06.283Z,97784.63
2022-09-15T18:25:33.753Z,97781.00
2022-09-15T18:28:01.030Z,97780.84
2022-09-15T18:30:28.204Z,97788.56
2022-09-15T18:32:55.380Z,97795.44
2022-09-15T18:35:22.559Z,97798.38
2022-09-15T18:37:49.735Z,97807.06
2022-09-15T18:40:17.030Z,97803.63
2022-09-15T18:42:44.254Z,97804.28
2022-09-15T18:45:11.497Z,97805.94
2022-09-15T18:47:38.740Z,97811.16
2022-09-15T18:50:06.607Z,97805.09
2022-09-15T18:52:33.843Z,97809.34
2022-09-15T18:55:01.042Z,97812.97
2022-09-15T18:57:28.612Z,97814.78
2022-09-15T18:59:55.860Z,97820.34
2022-09-15T19:02:23.157Z,97818.38
2022-09-15T19:04:50.388Z,97823.63
2022-09-15T19:07:17.595Z,97822.81
2022-09-15T19:09:44.899Z,97821.97
2022-09-15T19:12:12.157Z,97824.78
2022-09-15T19:14:41.311Z,97819.88
2022-09-15T19:17:11.697Z,97824.28
2022-09-15T19:19:38.985Z,97828.72
2022-09-15T19:22:06.143Z,97819.19
2022-09-15T19:24:33.937Z,97824.44
2022-09-15T19:27:01.162Z,97821.00
2022-09-15T19:29:28.406Z,97821.00
2022-09-15T19:31:55.586Z,97821.19
2022-09-15T19:34:22.886Z,97823.13
2022-09-15T19:36:50.110Z,97827.41
2022-09-15T19:39:17.335Z,97832.81
2022-09-15T19:41:44.729Z,97832.00
2022-09-15T19:44:11.921Z,97824.31
2022-09-15T19:46:39.089Z,97817.41
2022-09-15T19:49:06.403Z,97822.66
2022-09-15T19:51:33.623Z,97828.69
2022-09-15T19:54:02.193Z,97832.16
2022-09-15T19:56:29.722Z,97825.25
2022-09-15T19:58:57.063Z,97826.25
2022-09-15T20:01:24.437Z,97829.56
2022-09-15T20:03:52.286Z,97839.03
2022-09-15T20:06:19.447Z,97846.72
2022-09-15T20:08:47.632Z,97846.72
2022-09-15T20:11:14.876Z,97845.78
2022-09-15T20:13:43.500Z,97837.72
2022-09-15T20:16:10.770Z,97839.22
2022-09-15T20:18:41.380Z,97841.00
2022-09-15T20:21:08.628Z,97844.28
2022-09-15T20:23:36.072Z,97853.94
2022-09-15T20:26:03.270Z,97854.78
2022-09-15T20:28:30.511Z,97854.78
2022-09-15T20:30:57.745Z,97852.97
2022-09-15T20:33:26.552Z,97858.22
2022-09-15T20:35:53.748Z,97862.47
2022-09-15T20:38:21.044Z,97857.22
2022-09-15T20:40:48.211Z,97857.22
2022-09-15T20:43:15.398Z,97858.88
2022-09-15T20:45:42.752Z,97854.59
2022-09-15T20:48:10.009Z,97853.63
2022-09-15T20:50:37.176Z,97855.44
2022-09-15T20:53:04.355Z,97853.78
2022-09-15T20:55:33.227Z,97853.78
2022-09-15T20:58:00.392Z,97855.59
2022-09-15T21:00:30.638Z,97848.38
2022-09-15T21:03:00.891Z,97849.34
2022-09-15T21:05:28.369Z,97851.00
2022-09-15T21:07:55.543Z,97842.31
2022-09-15T21:10:24.591Z,97848.38
2022-09-15T21:12:51.873Z,97851.97
2022-09-15T21:15:19.060Z,97845.91
2022-09-15T21:17:46.264Z,97849.34
2022-09-15T21:20:13.424Z,97848.53
2022-09-15T21:22:41.161Z,97846.72
2022-09-15T21:25:08.337Z,97859.84
2022-09-15T21:27:35.824Z,97856.25
2022-09-15T21:30:03.004Z,97861.66
2022-09-15T21:32:30.277Z,97859.84
2022-09-15T21:34:57.459Z,97863.31
2022-09-15T21:37:24.628Z,97867.72
2022-09-15T21:39:51.878Z,97874.75
2022-09-15T21:42:19.136Z,97872.13
2022-09-15T21:44:46.400Z,97877.38
2022-09-15T21:47:14.531Z,97872.13
2022-09-15T21:49:41.705Z,97870.50
2022-09-15T21:52:08.996Z,97865.25
2022-09-15T21:54:36.161Z,97862.63
2022-09-15T21:57:04.976Z,97855.75
2022-09-15T21:59:32.193Z,97847.91
2022-09-15T22:01:59.385Z,97854.78
2022-09-15T22:04:26.730Z,97856.56
2022-09-15T22:06:54.131Z,97856.56
2022-09-15T22:09:21.676Z,97857.38
2022-09-15T22:11:49.486Z,97862.63
2022-09-15T22:14:16.825Z,97865.25
2022-09-15T22:16:44.305Z,97863.63
2022-09-15T22:19:11.751Z,97869.69
2022-09-15T22:21:42.119Z,97873.94
2022-09-15T22:24:09.827Z,97876.56
2022-09-15T22:26:37.074Z,97871.31
2022-09-15T22:29:04.251Z,97873.94
2022-09-15T22:31:31.451Z,97873.13
2022-09-15T22:33:58.699Z,97874.94
2022-09-15T22:36:29.283Z,97877.56
2022-09-15T22:38:57.480Z,97876.56
2022-09-15T22:41:26.000Z,97874.13
2022-09-15T22:43:53.214Z,97878.38
2022-09-15T22:46:20.643Z,97876.75
2022-09-15T22:48:47.896Z,97876.75
2022-09-15T22:51:15.117Z,97877.69
2022-09-15T22:53:42.525Z,97871.50
2022-09-15T22:56:09.697Z,97872.63
2022-09-15T22:58:36.895Z,97877.88
2022-09-15T23:01:04.244Z,97871.00
2022-09-15T23:03:33.077Z,97871.16
2022-09-15T23:06:00.281Z,97873.13
2022-09-15T23:08:27.635Z,97874.94
2022-09-15T23:10:54.846Z,97882.81
2022-09-15T23:13:22.153Z,97882.00
2022-09-15T23:15:49.479Z,97887.22
2022-09-15T23:18:16.665Z,97886.38
2022-09-15T23:20:44.939Z,97893.44
2022-09-15T23:23:12.113Z,97890.81
2022-09-15T23:25:39.285Z,97893.44
2022-09-15T23:28:06.473Z,97888.19
2022-09-15T23:30:33.730Z,97888.50
2022-09-15T23:33:00.980Z,97888.69
2022-09-15T23:35:28.218Z,97882.44
2022-09-15T23:37:55.385Z,97879.00
2022-09-15T23:40:22.722Z,97877.50
2022-09-15T23:42:49.973Z,97880.28
2022-09-15T23:45:17.181Z,97873.56
2022-09-15T23:47:44.344Z,97872.91
2022-09-15T23:50:11.864Z,97878.31
2022-09-15T23:52:39.138Z,97874.88
2022-09-15T23:55:06.312Z,97867.31
2022-09-15T23:57:33.483Z,97871.94
